createdAt,value
2023-03-11T00:02:12.424Z,100403.31
2023-03-11T00:04:42.389Z,100407.63
2023-03-11T00:07:13.766Z,100414.63
2023-03-11T00:09:46.974Z,100432.88
2023-03-11T00:12:16.840Z,100435.56
2023-03-11T00:14:46.651Z,100439.75
2023-03-11T00:17:16.584Z,100441.47
2023-03-11T00:19:48.897Z,100450.94
2023-03-11T00:22:18.750Z,100448.34
2023-03-11T00:24:51.216Z,100451.03
2023-03-11T00:27:21.093Z,100457.13
2023-03-11T00:29:50.969Z,100460.50
2023-03-11T00:32:20.841Z,100465.59
2023-03-11T00:34:50.739Z,100471.00
2023-03-11T00:37:20.575Z,100475.31
2023-03-11T00:39:53.925Z,100480.56
2023-03-11T00:42:23.758Z,100471.00
2023-03-11T00:44:53.648Z,100475.47
2023-03-11T00:47:23.456Z,100485.16
2023-03-11T00:49:53.266Z,100480.13
2023-03-11T00:52:23.911Z,100488.75
2023-03-11T00:54:56.332Z,100493.00
2023-03-11T00:57:27.971Z,100500.91
2023-03-11T00:59:57.822Z,100508.78
2023-03-11T01:02:27.666Z,100502.88
2023-03-11T01:04:58.230Z,100508.09
2023-03-11T01:07:28.037Z,100516.66
2023-03-11T01:10:00.554Z,100507.09
2023-03-11T01:12:30.588Z,100523.56
2023-03-11T01:15:00.607Z,100519.06
2023-03-11T01:17:35.765Z,100518.06
2023-03-11T01:20:06.488Z,100524.84
2023-03-11T01:22:36.332Z,100538.47
2023-03-11T01:25:10.495Z,100533.16
2023-03-11T01:27:41.196Z,100537.38
2023-03-11T01:30:13.219Z,100538.97
2023-03-11T01:32:43.133Z,100546.66
2023-03-11T01:35:17.445Z,100552.56
2023-03-11T01:37:49.917Z,100547.09
2023-03-11T01:40:27.404Z,100548.78
2023-03-11T01:42:57.333Z,100561.84
2023-03-11T01:45:38.785Z,100556.66
2023-03-11T01:48:08.858Z,100559.25
2023-03-11T01:50:43.374Z,100553.16
2023-03-11T01:53:14.010Z,100563.66
2023-03-11T01:55:47.100Z,100560.06
2023-03-11T01:58:26.379Z,100568.44
2023-03-11T02:00:58.283Z,100563.16
2023-03-11T02:03:32.376Z,100573.72
2023-03-11T02:06:05.570Z,100568.53
2023-03-11T02:08:36.397Z,100565.06
2023-03-11T02:11:12.901Z,100565.94
2023-03-11T02:13:44.698Z,100560.66
2023-03-11T02:16:14.870Z,100565.06
2023-03-11T02:18:47.128Z,100567.94
2023-03-11T02:21:26.591Z,100561.25
2023-03-11T02:24:02.815Z,100564.00
2023-03-11T02:26:41.926Z,100572.00
2023-03-11T02:29:15.190Z,100582.47
2023-03-11T02:31:46.483Z,100574.88
2023-03-11T02:34:26.493Z,100582.88
2023-03-11T02:36:56.856Z,100576.06
2023-03-11T02:39:34.547Z,100580.47
2023-03-11T02:42:09.450Z,100583.94
2023-03-11T02:44:45.262Z,100593.34
2023-03-11T02:47:15.598Z,100581.00
2023-03-11T02:49:45.728Z,100584.97
2023-03-11T02:52:15.550Z,100595.16
2023-03-11T02:54:45.356Z,100589.78
2023-03-11T02:57:15.298Z,100591.28
2023-03-11T02:59:47.863Z,100601.56
2023-03-11T03:02:17.729Z,100592.78
2023-03-11T03:04:47.577Z,100593.88
2023-03-11T03:07:17.563Z,100590.47
2023-03-11T03:09:55.918Z,100598.56
2023-03-11T03:12:25.871Z,100594.16
2023-03-11T03:14:58.397Z,100599.09
2023-03-11T03:17:29.394Z,100605.88
2023-03-11T03:20:01.639Z,100606.75
2023-03-11T03:22:31.618Z,100604.16
2023-03-11T03:25:01.556Z,100603.16
2023-03-11T03:27:31.556Z,100606.75
2023-03-11T03:30:05.125Z,100607.56
2023-03-11T03:32:37.658Z,100604.75
2023-03-11T03:35:09.136Z,100607.28
2023-03-11T03:40:42.386Z,100625.50
2023-03-11T03:43:30.012Z,100631.41
2023-03-11T03:46:05.136Z,100627.13
2023-03-11T03:48:35.159Z,100640.81
2023-03-11T03:51:10.179Z,100637.41
2023-03-11T03:53:40.430Z,100637.28
2023-03-11T03:56:12.914Z,100645.28
2023-03-11T03:58:43.250Z,100643.59
2023-03-11T04:01:16.655Z,100653.25
2023-03-11T04:03:46.735Z,100651.56
2023-03-11T04:06:23.863Z,100664.63
2023-03-11T04:08:55.116Z,100664.53
2023-03-11T04:11:25.838Z,100666.31
2023-03-11T04:13:58.094Z,100662.03
2023-03-11T04:16:33.120Z,100676.81
2023-03-11T04:19:03.075Z,100672.44
2023-03-11T04:21:33.544Z,100678.50
2023-03-11T04:24:04.041Z,100674.22
2023-03-11T04:26:34.302Z,100684.78
2023-03-11T04:29:04.370Z,100676.91
2023-03-11T04:31:38.298Z,100683.78
2023-03-11T04:34:08.174Z,100686.28
2023-03-11T04:36:38.075Z,100682.09
2023-03-11T04:39:07.953Z,100695.97
2023-03-11T04:41:41.069Z,100689.78
2023-03-11T04:44:11.022Z,100693.38
2023-03-11T04:46:43.611Z,100701.94
2023-03-11T04:49:13.510Z,100688.88
2023-03-11T04:51:43.548Z,100702.84
2023-03-11T04:54:14.290Z,100703.75
2023-03-11T04:56:44.065Z,100707.13
2023-03-11T04:59:13.986Z,100701.03
2023-03-11T05:01:46.887Z,100696.66
2023-03-11T05:04:17.077Z,100704.53
2023-03-11T05:06:47.071Z,100707.34
2023-03-11T05:09:16.965Z,100702.16
2023-03-11T05:11:46.990Z,100710.22
2023-03-11T05:14:19.094Z,100707.63
2023-03-11T05:16:51.878Z,100708.63
2023-03-11T05:19:35.481Z,100712.09
2023-03-11T05:22:06.058Z,100711.31
2023-03-11T05:24:36.566Z,100712.09
2023-03-11T05:27:07.499Z,100718.09
2023-03-11T05:29:37.502Z,100713.81
2023-03-11T05:32:10.947Z,100719.81
2023-03-11T05:34:41.104Z,100719.69
2023-03-11T05:40:02.101Z,100736.09
2023-03-11T05:42:31.972Z,100738.47
2023-03-11T05:45:02.748Z,100738.56
2023-03-11T05:47:35.282Z,100731.41
2023-03-11T05:50:06.001Z,100732.88
2023-03-11T05:52:35.967Z,100748.44
2023-03-11T05:55:06.219Z,100746.47
2023-03-11T05:57:36.061Z,100749.13
2023-03-11T06:00:12.336Z,100755.34
2023-03-11T06:02:45.299Z,100745.84
2023-03-11T06:05:18.341Z,100752.94
2023-03-11T06:07:48.554Z,100758.03
2023-03-11T06:10:19.865Z,100762.63
2023-03-11T06:30:18.822Z,100788.06
2023-03-11T06:32:55.921Z,100786.59
2023-03-11T06:35:26.013Z,100790.59
2023-03-11T06:41:33.585Z,100799.78
2023-03-11T06:41:45.198Z,100795.66
2023-03-11T06:44:04.434Z,100805.88
2023-03-11T06:46:59.685Z,100810.16
2023-03-11T06:49:27.639Z,100812.66
2023-03-11T06:51:58.239Z,100822.91
2023-03-11T06:54:28.127Z,100827.13
2023-03-11T06:57:07.089Z,100826.13
2023-03-11T06:59:37.290Z,100824.94
2023-03-11T07:02:10.708Z,100825.00
2023-03-11T07:04:40.751Z,100828.31
2023-03-11T07:07:10.706Z,100836.00
2023-03-11T07:09:40.613Z,100836.72
2023-03-11T07:12:11.446Z,100845.28
2023-03-11T07:14:41.179Z,100845.28
2023-03-11T07:17:13.542Z,100842.69
2023-03-11T07:19:43.292Z,100844.50
2023-03-11T07:22:13.092Z,100854.06
2023-03-11T07:24:42.864Z,100855.88
2023-03-11T07:27:12.724Z,100853.47
2023-03-11T07:29:42.778Z,100863.06
2023-03-11T07:32:15.359Z,100859.88
2023-03-11T07:34:45.798Z,100860.06
2023-03-11T07:37:16.537Z,100869.06
2023-03-11T07:39:46.341Z,100872.88
2023-03-11T07:42:16.137Z,100875.88
2023-03-11T07:44:45.911Z,100878.06
2023-03-11T07:47:18.371Z,100871.75
2023-03-11T07:49:48.974Z,100884.25
2023-03-11T07:52:19.104Z,100882.88
2023-03-11T07:54:48.925Z,100887.63
2023-03-11T07:57:18.940Z,100890.94
2023-03-11T07:59:48.744Z,100888.31
2023-03-11T08:02:21.229Z,100892.59
2023-03-11T08:04:51.084Z,100898.47
2023-03-11T08:07:20.931Z,100897.63
2023-03-11T08:09:50.705Z,100901.19
2023-03-11T08:12:20.515Z,100905.53
2023-03-11T08:14:50.295Z,100911.69
2023-03-11T08:17:22.662Z,100907.41
2023-03-11T08:19:59.939Z,100910.91
2023-03-11T08:22:29.726Z,100910.31
2023-03-11T08:24:59.695Z,100907.88
2023-03-11T08:27:31.079Z,100916.63
2023-03-11T08:30:01.939Z,100913.13
2023-03-11T08:32:37.428Z,100915.78
2023-03-11T08:35:07.924Z,100921.88
2023-03-11T08:37:37.821Z,100922.78
2023-03-11T08:40:10.606Z,100922.72
2023-03-11T08:42:41.986Z,100924.53
2023-03-11T08:45:13.304Z,100925.38
2023-03-11T08:47:45.803Z,100927.66
2023-03-11T08:50:18.749Z,100931.66
2023-03-11T08:52:48.713Z,100928.47
2023-03-11T08:55:25.200Z,100937.44
2023-03-11T08:57:55.495Z,100938.75
2023-03-11T09:00:26.504Z,100932.19
2023-03-11T09:02:59.205Z,100936.25
2023-03-11T09:05:29.270Z,100933.28
2023-03-11T09:07:59.095Z,100935.53
2023-03-11T09:10:29.021Z,100936.75
2023-03-11T09:12:58.980Z,100930.13
2023-03-11T09:15:29.760Z,100939.38
2023-03-11T09:18:03.386Z,100939.00
2023-03-11T09:20:33.238Z,100931.59
2023-03-11T09:23:03.106Z,100934.50
2023-03-11T09:25:33.384Z,100939.91
2023-03-11T09:28:03.241Z,100939.16
2023-03-11T09:30:33.234Z,100940.19
2023-03-11T09:33:05.766Z,100939.53
2023-03-11T09:35:35.883Z,100926.50
2023-03-11T09:38:05.861Z,100932.78
2023-03-11T09:40:48.551Z,100938.25
2023-03-11T09:43:28.974Z,100933.00
2023-03-11T09:46:09.113Z,100929.66
2023-03-11T09:48:47.501Z,100920.13
2023-03-11T09:51:22.566Z,100925.53
2023-03-11T09:54:02.733Z,100921.44
2023-03-11T09:56:35.640Z,100932.28
2023-03-11T09:59:10.149Z,100927.16
2023-03-11T10:01:45.424Z,100928.84
2023-03-11T10:04:23.567Z,100931.47
2023-03-11T10:06:53.602Z,100930.53
2023-03-11T10:09:39.361Z,100928.91
2023-03-11T10:12:30.467Z,100934.22
2023-03-11T10:15:17.515Z,100930.75
2023-03-11T10:18:02.034Z,100927.13
2023-03-11T10:20:41.898Z,100925.78
2023-03-11T10:23:23.276Z,100934.31
2023-03-11T10:26:03.179Z,100935.00
2023-03-11T10:28:39.770Z,100935.53
2023-03-11T10:31:21.833Z,100940.47
2023-03-11T10:33:56.362Z,100935.09
2023-03-11T10:36:35.929Z,100929.59
2023-03-11T10:39:07.482Z,100932.88
2023-03-11T10:41:47.691Z,100931.84
2023-03-11T10:44:23.366Z,100940.13
2023-03-11T10:46:53.262Z,100933.75
2023-03-11T10:49:28.328Z,100929.28
2023-03-11T10:52:00.899Z,100930.88
2023-03-11T10:54:33.710Z,100943.84
2023-03-11T10:57:05.262Z,100933.53
2023-03-11T10:59:40.010Z,100939.75
2023-03-11T11:02:26.567Z,100940.81
2023-03-11T11:05:24.599Z,100946.94
2023-03-11T11:08:07.205Z,100942.72
2023-03-11T11:10:37.990Z,100940.13
2023-03-11T11:13:22.094Z,100939.31
2023-03-11T11:15:57.611Z,100936.75
2023-03-11T11:18:30.978Z,100943.84
2023-03-11T11:21:06.987Z,100935.19
2023-03-11T11:23:43.783Z,100936.97
2023-03-11T11:26:20.795Z,100937.88
2023-03-11T11:29:09.334Z,100935.25
2023-03-11T11:31:40.954Z,100948.28
2023-03-11T11:34:31.150Z,100947.59
2023-03-11T11:37:03.705Z,100947.59
2023-03-11T11:39:51.995Z,100939.69
2023-03-11T11:42:24.342Z,100940.66
2023-03-11T11:44:58.450Z,100938.09
2023-03-11T11:47:33.229Z,100936.38
2023-03-11T11:50:05.185Z,100940.72
2023-03-11T11:52:40.112Z,100930.34
2023-03-11T11:55:26.072Z,100931.44
2023-03-11T11:57:56.118Z,100935.09
2023-03-11T12:00:31.176Z,100927.34
2023-03-11T12:03:30.728Z,100939.56
2023-03-11T12:06:03.062Z,100938.47
2023-03-11T12:08:42.900Z,100936.75
2023-03-11T12:11:23.932Z,100940.19
2023-03-11T12:14:04.628Z,100936.59
2023-03-11T12:16:44.959Z,100939.44
2023-03-11T12:19:22.671Z,100932.56
2023-03-11T12:22:11.537Z,100937.84
2023-03-11T12:25:05.888Z,100931.16
2023-03-11T12:27:47.013Z,100940.88
2023-03-11T12:30:21.595Z,100936.44
2023-03-11T12:32:56.146Z,100936.38
2023-03-11T12:35:30.049Z,100932.63
2023-03-11T12:38:08.170Z,100934.13
2023-03-11T12:40:59.977Z,100942.66
2023-03-11T12:44:05.619Z,100939.06
2023-03-11T12:47:03.985Z,100937.28
2023-03-11T12:49:36.141Z,100944.31
2023-03-11T12:52:09.136Z,100940.94
2023-03-11T12:54:40.101Z,100949.16
2023-03-11T12:57:33.496Z,100944.06
2023-03-11T13:00:23.127Z,100960.47
2023-03-11T13:03:33.081Z,100957.53
2023-03-11T13:06:17.179Z,100954.69
2023-03-11T13:08:50.594Z,100956.94
2023-03-11T13:11:38.714Z,100955.63
2023-03-11T13:14:33.239Z,100958.88
2023-03-11T13:17:30.955Z,100958.75
2023-03-11T13:20:01.649Z,100952.69
2023-03-11T13:22:47.621Z,100954.13
2023-03-11T13:25:38.207Z,100959.03
2023-03-11T13:28:38.817Z,100962.91
2023-03-11T13:31:33.835Z,100955.81
2023-03-11T13:34:17.031Z,100960.00
2023-03-11T13:36:58.150Z,100959.78
2023-03-11T13:39:52.517Z,100967.25
2023-03-11T13:42:30.831Z,100958.88
2023-03-11T13:45:01.982Z,100965.47
2023-03-11T13:47:33.275Z,100960.81
2023-03-11T13:50:11.146Z,100958.88
2023-03-11T13:52:49.544Z,100963.78
2023-03-11T13:55:23.221Z,100961.13
2023-03-11T13:57:54.748Z,100965.66
2023-03-11T14:00:28.621Z,100972.84
2023-03-11T14:03:04.408Z,100969.47
2023-03-11T14:05:38.998Z,100973.38
2023-03-11T14:08:24.224Z,100977.25
2023-03-11T14:10:57.748Z,100984.44
2023-03-11T14:13:29.063Z,100985.44
2023-03-11T14:16:05.479Z,100983.84
2023-03-11T14:18:38.537Z,100982.94
2023-03-11T14:21:16.703Z,100988.19
2023-03-11T14:23:50.444Z,100987.19
2023-03-11T14:26:22.945Z,100988.03
2023-03-11T14:28:55.084Z,100981.97
2023-03-11T14:31:28.582Z,100994.09
2023-03-11T14:34:04.368Z,100993.13
2023-03-11T14:36:43.684Z,100992.16
2023-03-11T14:39:31.289Z,100994.53
2023-03-11T14:42:09.895Z,101003.88
2023-03-11T14:44:47.184Z,101001.91
2023-03-11T14:47:24.039Z,100996.53
2023-03-11T14:49:55.410Z,101015.50
2023-03-11T14:52:37.425Z,101023.28
2023-03-11T14:55:11.745Z,101024.41
2023-03-11T14:57:48.040Z,101027.22
2023-03-11T15:00:21.885Z,101028.00
2023-03-11T15:03:07.660Z,101026.97
2023-03-11T15:05:45.425Z,101028.50
2023-03-11T15:08:21.622Z,101030.13
2023-03-11T15:11:08.521Z,101024.03
2023-03-11T15:13:39.291Z,101037.53
2023-03-11T15:16:23.832Z,101033.94
2023-03-11T15:18:54.498Z,101021.81
2023-03-11T15:21:26.260Z,101026.22
2023-03-11T15:24:05.363Z,101026.47
2023-03-11T15:26:40.654Z,101017.91
2023-03-11T15:29:21.488Z,101016.63
2023-03-11T15:31:51.972Z,101015.28
2023-03-11T15:34:31.875Z,101009.50
2023-03-11T15:37:07.290Z,101011.63
2023-03-11T15:39:51.364Z,101012.06
2023-03-11T15:42:24.589Z,101007.16
2023-03-11T15:45:21.780Z,101005.19
2023-03-11T15:47:55.051Z,100995.88
2023-03-11T15:50:37.605Z,100998.00
2023-03-11T15:53:19.106Z,100999.00
2023-03-11T15:55:51.987Z,101002.59
2023-03-11T15:58:23.672Z,100999.06
2023-03-11T16:00:56.356Z,101007.63
2023-03-11T16:03:27.054Z,100994.56
2023-03-11T16:05:56.803Z,101003.41
2023-03-11T16:08:26.630Z,101004.28
2023-03-11T16:10:59.010Z,101007.88
2023-03-11T16:13:28.820Z,101005.34
2023-03-11T16:15:58.690Z,101002.00
2023-03-11T16:18:29.247Z,101009.94
2023-03-11T16:20:59.466Z,101011.63
2023-03-11T16:23:48.551Z,101013.50
2023-03-11T16:26:25.399Z,101003.06
2023-03-11T16:28:55.246Z,101013.34
2023-03-11T16:31:25.388Z,101013.19
2023-03-11T16:33:55.171Z,101013.09
2023-03-11T16:36:24.954Z,101015.72
2023-03-11T16:38:56.129Z,101012.22
2023-03-11T16:41:28.520Z,101007.72
2023-03-11T16:43:58.263Z,101007.63
2023-03-11T16:46:28.041Z,101013.69
2023-03-11T16:48:57.842Z,101010.09
2023-03-11T16:51:27.641Z,101009.03
2023-03-11T16:53:57.448Z,101006.34
2023-03-11T16:56:30.008Z,101009.78
2023-03-11T16:58:59.907Z,101013.03
2023-03-11T17:01:29.881Z,101025.09
2023-03-11T17:03:59.695Z,101026.75
2023-03-11T17:06:29.492Z,101030.09
2023-03-11T17:08:59.240Z,101030.91
2023-03-11T17:11:33.361Z,101038.69
2023-03-11T17:14:15.517Z,101044.53
2023-03-11T17:16:46.289Z,101039.78
2023-03-11T17:19:16.772Z,101039.69
2023-03-11T17:21:46.884Z,101048.19
2023-03-11T17:24:17.444Z,101042.88
2023-03-11T17:26:49.816Z,101041.09
2023-03-11T17:29:19.654Z,101047.78
2023-03-11T17:31:52.481Z,101052.91
2023-03-11T17:34:23.823Z,101058.84
2023-03-11T17:36:53.851Z,101065.50
2023-03-11T17:39:23.636Z,101064.22
2023-03-11T17:41:55.990Z,101065.44
2023-03-11T17:44:25.778Z,101073.00
2023-03-11T17:46:55.629Z,101064.03
2023-03-11T17:49:25.975Z,101054.16
2023-03-11T17:51:55.735Z,101066.00
2023-03-11T17:54:25.900Z,101071.03
2023-03-11T17:57:05.260Z,101081.16
2023-03-11T17:59:35.058Z,101084.38
2023-03-11T18:02:05.262Z,101087.63
2023-03-11T18:04:35.043Z,101086.53
2023-03-11T18:07:04.841Z,101087.97
2023-03-11T18:09:34.586Z,101090.41
2023-03-11T18:12:07.720Z,101092.84
2023-03-11T18:14:38.549Z,101090.84
2023-03-11T18:17:08.379Z,101086.25
2023-03-11T18:19:38.278Z,101082.69
2023-03-11T18:22:09.207Z,101086.00
2023-03-11T18:24:38.958Z,101093.72
2023-03-11T18:27:11.460Z,101096.22
2023-03-11T18:29:41.244Z,101090.09
2023-03-11T18:32:11.007Z,101093.59
2023-03-11T18:34:41.790Z,101094.44
2023-03-11T18:37:11.885Z,101099.66
2023-03-11T18:39:42.172Z,101093.53
2023-03-11T18:42:16.050Z,101092.66
2023-03-11T18:44:45.867Z,101097.03
2023-03-11T18:47:15.695Z,101090.81
2023-03-11T18:49:46.610Z,101109.00
2023-03-11T18:52:16.374Z,101102.69
2023-03-11T18:54:46.103Z,101103.41
2023-03-11T18:57:18.445Z,101099.78
2023-03-11T18:59:51.947Z,101098.72
2023-03-11T19:02:21.710Z,101109.88
2023-03-11T19:04:51.453Z,101117.41
2023-03-11T19:07:22.759Z,101114.59
2023-03-11T19:09:56.513Z,101111.81
2023-03-11T19:12:30.984Z,101106.41
2023-03-11T19:15:00.733Z,101121.84
2023-03-11T19:17:30.488Z,101114.75
2023-03-11T19:20:00.275Z,101117.06
2023-03-11T19:22:31.567Z,101117.00
2023-03-11T19:25:01.355Z,101120.47
2023-03-11T19:27:35.079Z,101117.88
2023-03-11T19:30:07.196Z,101115.09
2023-03-11T19:32:37.012Z,101115.88
2023-03-11T19:35:07.479Z,101117.47
2023-03-11T19:37:37.223Z,101119.31
2023-03-11T19:40:09.726Z,101117.69
2023-03-11T19:42:43.455Z,101124.69
2023-03-11T19:45:14.287Z,101128.13
2023-03-11T19:47:46.595Z,101117.69
2023-03-11T19:50:16.414Z,101129.91
2023-03-11T19:52:46.392Z,101120.19
2023-03-11T19:55:16.383Z,101125.22
2023-03-11T19:57:48.897Z,101129.59
2023-03-11T20:00:20.009Z,101123.41
2023-03-11T20:02:49.892Z,101125.03
2023-03-11T20:05:21.277Z,101130.13
2023-03-11T20:07:51.154Z,101129.13
2023-03-11T20:10:21.225Z,101130.03
2023-03-11T20:13:02.193Z,101133.44
2023-03-11T20:15:32.423Z,101130.53
2023-03-11T20:18:05.960Z,101137.34
2023-03-11T20:20:36.945Z,101130.97
2023-03-11T20:23:06.840Z,101125.50
2023-03-11T20:25:36.638Z,101134.78
2023-03-11T20:28:09.426Z,101131.81
2023-03-11T20:30:42.691Z,101134.19
2023-03-11T20:33:12.516Z,101136.72
2023-03-11T20:35:42.562Z,101124.28
2023-03-11T20:38:17.614Z,101139.03
2023-03-11T20:40:47.375Z,101131.81
2023-03-11T20:43:19.753Z,101136.81
2023-03-11T20:45:49.583Z,101136.63
2023-03-11T20:48:22.478Z,101133.91
2023-03-11T20:50:52.344Z,101136.44
2023-03-11T20:53:22.154Z,101136.44
2023-03-11T20:55:51.989Z,101144.13
2023-03-11T20:58:25.219Z,101142.41
2023-03-11T21:00:55.379Z,101138.22
2023-03-11T21:03:25.257Z,101138.34
2023-03-11T21:05:55.254Z,101134.13
2023-03-11T21:08:25.091Z,101135.09
2023-03-11T21:10:55.000Z,101128.94
2023-03-11T21:13:27.426Z,101135.72
2023-03-11T21:15:57.373Z,101135.63
2023-03-11T21:18:27.184Z,101131.94
2023-03-11T21:20:57.006Z,101139.63
2023-03-11T21:23:26.892Z,101142.03
2023-03-11T21:26:01.203Z,101142.81
2023-03-11T21:28:34.585Z,101135.81
2023-03-11T21:31:06.760Z,101137.41
2023-03-11T21:33:36.627Z,101144.44
2023-03-11T21:36:08.245Z,101140.91
2023-03-11T21:38:38.170Z,101135.63
2023-03-11T21:41:10.419Z,101139.03
2023-03-11T21:43:44.627Z,101138.03
2023-03-11T21:46:17.344Z,101137.03
2023-03-11T21:48:47.207Z,101135.22
2023-03-11T21:51:17.455Z,101136.84
2023-03-11T21:53:48.070Z,101138.50
2023-03-11T21:56:22.262Z,101138.63
2023-03-11T21:58:54.659Z,101137.72
2023-03-11T22:01:24.744Z,101129.94
2023-03-11T22:03:55.407Z,101133.53
2023-03-11T22:06:25.768Z,101122.31
2023-03-11T22:08:55.960Z,101130.13
2023-03-11T22:11:25.768Z,101135.44
2023-03-11T22:14:00.942Z,101132.03
2023-03-11T22:16:30.930Z,101134.75
2023-03-11T22:19:00.888Z,101123.63
2023-03-11T22:21:30.728Z,101128.03
2023-03-11T22:24:00.593Z,101134.03
2023-03-11T22:26:30.381Z,101125.22
2023-03-11T22:29:04.070Z,101129.31
2023-03-11T22:31:37.381Z,101125.44
2023-03-11T22:34:07.166Z,101131.22
2023-03-11T22:36:37.041Z,101124.03
2023-03-11T22:39:07.377Z,101128.22
2023-03-11T22:41:37.203Z,101135.91
2023-03-11T22:44:09.660Z,101133.44
2023-03-11T22:46:39.463Z,101141.31
2023-03-11T22:49:09.239Z,101132.72
2023-03-11T22:51:39.019Z,101139.03
2023-03-11T22:54:10.585Z,101136.53
2023-03-11T22:56:47.394Z,101131.22
2023-03-11T22:59:24.519Z,101128.72
2023-03-11T23:01:54.470Z,101131.34
2023-03-11T23:04:24.316Z,101129.44
2023-03-11T23:06:54.675Z,101132.81
2023-03-11T23:09:25.021Z,101137.94
2023-03-11T23:11:55.769Z,101130.84
2023-03-11T23:14:43.762Z,101128.22
2023-03-11T23:17:14.706Z,101126.31
2023-03-11T23:19:44.485Z,101124.44
2023-03-11T23:22:14.303Z,101126.91
2023-03-11T23:24:44.064Z,101127.72
2023-03-11T23:27:13.850Z,101123.22
2023-03-11T23:29:49.484Z,101115.19
2023-03-11T23:32:19.368Z,101117.59
2023-03-11T23:34:49.214Z,101119.19
2023-03-11T23:37:19.027Z,101111.19
2023-03-11T23:39:48.807Z,101110.19
2023-03-11T23:42:25.898Z,101107.50
2023-03-11T23:44:58.640Z,101118.69
2023-03-11T23:47:28.527Z,101115.88
2023-03-11T23:49:58.324Z,101119.09
2023-03-11T23:52:28.715Z,101104.06
2023-03-11T23:54:58.618Z,101103.97
2023-03-11T23:57:28.751Z,101104.78
